sensor_id;sensor_type;location;lat;lon;timestamp;temperature;humidity
21834;DHT22;11079;51.092;3.458;2023-07-02T00:01:36;17.90;99.90
21834;DHT22;11079;51.092;3.458;2023-07-02T00:04:02;17.80;99.90
21834;DHT22;11079;51.092;3.458;2023-07-02T00:06:28;17.80;99.90
21834;DHT22;11079;51.092;3.458;2023-07-02T00:08:53;17.90;99.90
21834;DHT22;11079;51.092;3.458;2023-07-02T00:11:19;17.90;99.90
21834;DHT22;11079;51.092;3.458;2023-07-02T00:13:44;17.90;99.90
21834;DHT22;11079;51.092;3.458;2023-07-02T00:16:10;17.80;99.90
21834;DHT22;11079;51.092;3.458;2023-07-02T00:18:35;18.00;99.90
21834;DHT22;11079;51.092;3.458;2023-07-02T00:21:01;18.10;99.90
21834;DHT22;11079;51.092;3.458;2023-07-02T00:23:30;18.10;99.90
21834;DHT22;11079;51.092;3.458;2023-07-02T00:25:59;18.00;99.90
21834;DHT22;11079;51.092;3.458;2023-07-02T00:28:24;17.90;99.90
21834;DHT22;11079;51.092;3.458;2023-07-02T00:30:50;17.80;99.90
21834;DHT22;11079;51.092;3.458;2023-07-02T00:33:16;17.80;99.90
21834;DHT22;11079;51.092;3.458;2023-07-02T00:35:41;17.70;99.90
21834;DHT22;11079;51.092;3.458;2023-07-02T00:38:07;17.80;99.90
21834;DHT22;11079;51.092;3.458;2023-07-02T00:40:32;17.90;99.90
21834;DHT22;11079;51.092;3.458;2023-07-02T00:42:58;17.80;99.90
21834;DHT22;11079;51.092;3.458;2023-07-02T00:45:24;17.70;99.90
21834;DHT22;11079;51.092;3.458;2023-07-02T00:47:54;17.90;99.90
21834;DHT22;11079;51.092;3.458;2023-07-02T00:50:21;17.70;99.90
21834;DHT22;11079;51.092;3.458;2023-07-02T00:52:47;17.60;99.90
21834;DHT22;11079;51.092;3.458;2023-07-02T00:55:13;17.60;99.90
21834;DHT22;11079;51.092;3.458;2023-07-02T00:57:39;17.70;99.90
21834;DHT22;11079;51.092;3.458;2023-07-02T01:00:06;17.60;99.90
21834;DHT22;11079;51.092;3.458;2023-07-02T01:02:32;17.60;99.90
21834;DHT22;11079;51.092;3.458;2023-07-02T01:04:58;17.40;99.90
21834;DHT22;11079;51.092;3.458;2023-07-02T01:07:25;17.50;99.90
21834;DHT22;11079;51.092;3.458;2023-07-02T01:09:51;17.60;99.90
21834;DHT22;11079;51.092;3.458;2023-07-02T01:12:17;17.50;99.90
21834;DHT22;11079;51.092;3.458;2023-07-02T01:14:54;17.50;99.90
21834;DHT22;11079;51.092;3.458;2023-07-02T01:17:22;17.50;99.90
21834;DHT22;11079;51.092;3.458;2023-07-02T01:19:53;17.40;99.90
21834;DHT22;11079;51.092;3.458;2023-07-02T01:22:26;17.30;99.90
21834;DHT22;11079;51.092;3.458;2023-07-02T01:24:52;17.20;99.90
21834;DHT22;11079;51.092;3.458;2023-07-02T01:27:18;17.10;99.90
21834;DHT22;11079;51.092;3.458;2023-07-02T01:29:45;17.10;99.90
21834;DHT22;11079;51.092;3.458;2023-07-02T01:32:15;17.20;99.90
21834;DHT22;11079;51.092;3.458;2023-07-02T01:34:40;17.20;99.90
21834;DHT22;11079;51.092;3.458;2023-07-02T01:37:06;17.20;99.90
21834;DHT22;11079;51.092;3.458;2023-07-02T01:39:33;17.20;99.90
21834;DHT22;11079;51.092;3.458;2023-07-02T01:42:16;17.20;99.90
21834;DHT22;11079;51.092;3.458;2023-07-02T01:44:42;17.10;99.90
21834;DHT22;11079;51.092;3.458;2023-07-02T01:47:08;17.10;99.90
21834;DHT22;11079;51.092;3.458;2023-07-02T01:49:33;16.90;99.90
21834;DHT22;11079;51.092;3.458;2023-07-02T01:52:00;17.00;99.90
21834;DHT22;11079;51.092;3.458;2023-07-02T01:54:26;16.90;99.90
21834;DHT22;11079;51.092;3.458;2023-07-02T01:56:55;16.90;99.90
21834;DHT22;11079;51.092;3.458;2023-07-02T01:59:21;17.00;99.90
21834;DHT22;11079;51.092;3.458;2023-07-02T02:01:47;17.00;99.90
21834;DHT22;11079;51.092;3.458;2023-07-02T02:04:13;16.90;99.90
21834;DHT22;11079;51.092;3.458;2023-07-02T02:06:40;16.90;99.90
21834;DHT22;11079;51.092;3.458;2023-07-02T02:09:06;16.70;99.90
21834;DHT22;11079;51.092;3.458;2023-07-02T02:11:33;16.80;99.90
21834;DHT22;11079;51.092;3.458;2023-07-02T02:13:59;16.70;99.90
21834;DHT22;11079;51.092;3.458;2023-07-02T02:16:27;16.70;99.90
21834;DHT22;11079;51.092;3.458;2023-07-02T02:18:52;16.70;99.90
21834;DHT22;11079;51.092;3.458;2023-07-02T02:21:19;16.70;99.90
21834;DHT22;11079;51.092;3.458;2023-07-02T02:23:45;16.80;99.90
21834;DHT22;11079;51.092;3.458;2023-07-02T02:26:12;16.90;99.90
21834;DHT22;11079;51.092;3.458;2023-07-02T02:28:38;16.90;99.90
21834;DHT22;11079;51.092;3.458;2023-07-02T02:31:04;17.00;99.90
21834;DHT22;11079;51.092;3.458;2023-07-02T02:33:32;16.90;99.90
21834;DHT22;11079;51.092;3.458;2023-07-02T02:35:58;16.90;99.90
21834;DHT22;11079;51.092;3.458;2023-07-02T02:38:23;17.00;99.90
21834;DHT22;11079;51.092;3.458;2023-07-02T02:40:49;17.00;99.90
21834;DHT22;11079;51.092;3.458;2023-07-02T02:43:15;17.00;99.90
21834;DHT22;11079;51.092;3.458;2023-07-02T02:45:42;17.00;99.90
21834;DHT22;11079;51.092;3.458;2023-07-02T02:48:08;17.00;99.90
21834;DHT22;11079;51.092;3.458;2023-07-02T02:50:33;17.00;99.90
21834;DHT22;11079;51.092;3.458;2023-07-02T02:52:59;17.00;99.90
21834;DHT22;11079;51.092;3.458;2023-07-02T02:55:24;16.90;99.90
21834;DHT22;11079;51.092;3.458;2023-07-02T02:57:51;16.90;99.90
21834;DHT22;11079;51.092;3.458;2023-07-02T03:00:17;17.00;99.90
21834;DHT22;11079;51.092;3.458;2023-07-02T03:02:42;17.00;99.90
21834;DHT22;11079;51.092;3.458;2023-07-02T03:05:08;17.00;99.90
21834;DHT22;11079;51.092;3.458;2023-07-02T03:07:34;16.90;99.90
21834;DHT22;11079;51.092;3.458;2023-07-02T03:10:00;17.00;99.90
21834;DHT22;11079;51.092;3.458;2023-07-02T03:12:26;17.00;99.90
21834;DHT22;11079;51.092;3.458;2023-07-02T03:14:52;17.20;99.90
21834;DHT22;11079;51.092;3.458;2023-07-02T03:17:23;17.20;99.90
21834;DHT22;11079;51.092;3.458;2023-07-02T03:19:48;17.20;99.90
21834;DHT22;11079;51.092;3.458;2023-07-02T03:22:14;17.10;99.90
21834;DHT22;11079;51.092;3.458;2023-07-02T03:24:39;17.10;99.90
21834;DHT22;11079;51.092;3.458;2023-07-02T03:27:05;17.00;99.90
21834;DHT22;11079;51.092;3.458;2023-07-02T03:29:33;17.10;99.90
21834;DHT22;11079;51.092;3.458;2023-07-02T03:31:59;17.10;99.90
21834;DHT22;11079;51.092;3.458;2023-07-02T03:34:25;17.20;99.90
21834;DHT22;11079;51.092;3.458;2023-07-02T03:36:51;17.20;99.90
21834;DHT22;11079;51.092;3.458;2023-07-02T03:39:16;17.20;99.90
21834;DHT22;11079;51.092;3.458;2023-07-02T03:41:43;17.10;99.90
21834;DHT22;11079;51.092;3.458;2023-07-02T03:44:09;17.00;99.90
21834;DHT22;11079;51.092;3.458;2023-07-02T03:46:35;17.00;99.90
21834;DHT22;11079;51.092;3.458;2023-07-02T03:49:02;17.00;99.90
21834;DHT22;11079;51.092;3.458;2023-07-02T03:51:28;16.90;99.90
21834;DHT22;11079;51.092;3.458;2023-07-02T03:53:54;16.90;99.90
21834;DHT22;11079;51.092;3.458;2023-07-02T03:56:20;17.00;99.90
21834;DHT22;11079;51.092;3.458;2023-07-02T03:58:46;16.90;99.90
21834;DHT22;11079;51.092;3.458;2023-07-02T04:01:11;16.90;99.90
21834;DHT22;11079;51.092;3.458;2023-07-02T04:03:37;17.00;99.90
21834;DHT22;11079;51.092;3.458;2023-07-02T04:06:03;16.90;99.90
21834;DHT22;11079;51.092;3.458;2023-07-02T04:08:31;16.90;99.90
21834;DHT22;11079;51.092;3.458;2023-07-02T04:10:57;16.80;99.90
21834;DHT22;11079;51.092;3.458;2023-07-02T04:13:23;16.80;99.90
21834;DHT22;11079;51.092;3.458;2023-07-02T04:15:48;17.00;99.90
21834;DHT22;11079;51.092;3.458;2023-07-02T04:18:14;16.90;99.90
21834;DHT22;11079;51.092;3.458;2023-07-02T04:20:39;16.90;99.90
21834;DHT22;11079;51.092;3.458;2023-07-02T04:23:06;16.90;99.90
21834;DHT22;11079;51.092;3.458;2023-07-02T04:25:31;16.90;99.90
21834;DHT22;11079;51.092;3.458;2023-07-02T04:27:57;17.00;99.90
21834;DHT22;11079;51.092;3.458;2023-07-02T04:30:24;16.90;99.90
21834;DHT22;11079;51.092;3.458;2023-07-02T04:32:51;17.00;99.90
21834;DHT22;11079;51.092;3.458;2023-07-02T04:35:17;17.00;99.90
21834;DHT22;11079;51.092;3.458;2023-07-02T04:37:44;16.90;99.90
21834;DHT22;11079;51.092;3.458;2023-07-02T04:40:10;17.10;99.90
21834;DHT22;11079;51.092;3.458;2023-07-02T04:42:36;17.10;99.90
21834;DHT22;11079;51.092;3.458;2023-07-02T04:45:06;17.20;99.90
21834;DHT22;11079;51.092;3.458;2023-07-02T04:47:34;17.30;99.90
21834;DHT22;11079;51.092;3.458;2023-07-02T04:50:00;17.40;99.90
21834;DHT22;11079;51.092;3.458;2023-07-02T04:52:26;17.60;99.90
21834;DHT22;11079;51.092;3.458;2023-07-02T04:54:52;17.60;99.90
21834;DHT22;11079;51.092;3.458;2023-07-02T04:57:18;17.60;99.90
21834;DHT22;11079;51.092;3.458;2023-07-02T04:59:44;17.80;99.90
21834;DHT22;11079;51.092;3.458;2023-07-02T05:02:10;17.70;99.90
21834;DHT22;11079;51.092;3.458;2023-07-02T05:04:36;17.80;99.90
21834;DHT22;11079;51.092;3.458;2023-07-02T05:07:03;17.90;99.90
21834;DHT22;11079;51.092;3.458;2023-07-02T05:09:30;18.00;99.90
21834;DHT22;11079;51.092;3.458;2023-07-02T05:11:55;18.00;99.90
21834;DHT22;11079;51.092;3.458;2023-07-02T05:14:21;18.10;99.90
21834;DHT22;11079;51.092;3.458;2023-07-02T05:16:48;18.20;99.90
21834;DHT22;11079;51.092;3.458;2023-07-02T05:19:17;18.30;99.90
21834;DHT22;11079;51.092;3.458;2023-07-02T05:21:42;18.40;99.90
21834;DHT22;11079;51.092;3.458;2023-07-02T05:24:08;18.50;99.90
21834;DHT22;11079;51.092;3.458;2023-07-02T05:26:35;18.60;99.90
21834;DHT22;11079;51.092;3.458;2023-07-02T05:29:01;18.60;99.90
21834;DHT22;11079;51.092;3.458;2023-07-02T05:31:27;18.60;99.90
21834;DHT22;11079;51.092;3.458;2023-07-02T05:33:53;18.80;99.90
21834;DHT22;11079;51.092;3.458;2023-07-02T05:36:19;18.90;99.90
21834;DHT22;11079;51.092;3.458;2023-07-02T05:38:45;18.90;99.90
21834;DHT22;11079;51.092;3.458;2023-07-02T05:41:11;18.90;99.90
21834;DHT22;11079;51.092;3.458;2023-07-02T05:43:36;18.90;99.90
21834;DHT22;11079;51.092;3.458;2023-07-02T05:46:02;19.00;99.90
21834;DHT22;11079;51.092;3.458;2023-07-02T05:48:28;19.10;99.90
21834;DHT22;11079;51.092;3.458;2023-07-02T05:50:54;19.30;99.90
21834;DHT22;11079;51.092;3.458;2023-07-02T05:53:20;19.20;99.90
21834;DHT22;11079;51.092;3.458;2023-07-02T05:55:46;19.10;99.90
21834;DHT22;11079;51.092;3.458;2023-07-02T05:58:12;19.00;99.90
21834;DHT22;11079;51.092;3.458;2023-07-02T06:00:38;19.10;99.90
21834;DHT22;11079;51.092;3.458;2023-07-02T06:03:06;19.20;99.90
21834;DHT22;11079;51.092;3.458;2023-07-02T06:05:32;19.30;99.90
21834;DHT22;11079;51.092;3.458;2023-07-02T06:08:01;19.60;99.90
21834;DHT22;11079;51.092;3.458;2023-07-02T06:10:31;19.40;99.90
21834;DHT22;11079;51.092;3.458;2023-07-02T06:15:32;19.70;99.90
21834;DHT22;11079;51.092;3.458;2023-07-02T06:17:58;20.00;99.90
21834;DHT22;11079;51.092;3.458;2023-07-02T06:20:24;20.30;99.90
21834;DHT22;11079;51.092;3.458;2023-07-02T06:22:49;20.50;99.90
21834;DHT22;11079;51.092;3.458;2023-07-02T06:25:36;21.00;99.90
21834;DHT22;11079;51.092;3.458;2023-07-02T06:28:26;21.60;99.90
21834;DHT22;11079;51.092;3.458;2023-07-02T06:30:53;21.80;99.90
21834;DHT22;11079;51.092;3.458;2023-07-02T06:33:19;21.80;99.90
21834;DHT22;11079;51.092;3.458;2023-07-02T06:35:44;21.90;99.90
21834;DHT22;11079;51.092;3.458;2023-07-02T06:38:10;22.20;99.90
21834;DHT22;11079;51.092;3.458;2023-07-02T06:40:35;22.20;99.90
21834;DHT22;11079;51.092;3.458;2023-07-02T06:43:01;22.30;99.90
21834;DHT22;11079;51.092;3.458;2023-07-02T06:45:28;22.30;99.90
21834;DHT22;11079;51.092;3.458;2023-07-02T06:47:54;22.10;99.90
21834;DHT22;11079;51.092;3.458;2023-07-02T06:50:19;22.20;99.90
21834;DHT22;11079;51.092;3.458;2023-07-02T06:52:46;22.10;99.90
21834;DHT22;11079;51.092;3.458;2023-07-02T06:55:11;22.30;99.90
21834;DHT22;11079;51.092;3.458;2023-07-02T06:57:44;22.50;99.90
21834;DHT22;11079;51.092;3.458;2023-07-02T07:00:20;22.40;99.90
21834;DHT22;11079;51.092;3.458;2023-07-02T07:02:48;22.40;99.90
21834;DHT22;11079;51.092;3.458;2023-07-02T07:05:14;22.30;99.90
21834;DHT22;11079;51.092;3.458;2023-07-02T07:07:47;22.70;99.90
21834;DHT22;11079;51.092;3.458;2023-07-02T07:10:14;23.00;99.90
21834;DHT22;11079;51.092;3.458;2023-07-02T07:12:39;23.00;99.90
21834;DHT22;11079;51.092;3.458;2023-07-02T07:15:08;23.30;99.90
21834;DHT22;11079;51.092;3.458;2023-07-02T07:17:33;23.10;99.90
21834;DHT22;11079;51.092;3.458;2023-07-02T07:19:59;23.00;99.90
21834;DHT22;11079;51.092;3.458;2023-07-02T07:22:32;22.70;99.90
21834;DHT22;11079;51.092;3.458;2023-07-02T07:24:59;23.10;99.90
21834;DHT22;11079;51.092;3.458;2023-07-02T07:27:29;23.10;99.90
21834;DHT22;11079;51.092;3.458;2023-07-02T07:30:08;23.30;99.90
21834;DHT22;11079;51.092;3.458;2023-07-02T07:32:54;23.20;99.90
21834;DHT22;11079;51.092;3.458;2023-07-02T07:35:21;22.80;99.90
21834;DHT22;11079;51.092;3.458;2023-07-02T07:37:47;22.70;99.90
21834;DHT22;11079;51.092;3.458;2023-07-02T07:40:13;22.40;99.90
21834;DHT22;11079;51.092;3.458;2023-07-02T07:42:39;22.20;99.90
21834;DHT22;11079;51.092;3.458;2023-07-02T07:45:05;22.20;99.90
21834;DHT22;11079;51.092;3.458;2023-07-02T07:47:30;22.40;99.90
21834;DHT22;11079;51.092;3.458;2023-07-02T07:49:56;22.30;99.90
21834;DHT22;11079;51.092;3.458;2023-07-02T07:52:21;22.30;99.90
21834;DHT22;11079;51.092;3.458;2023-07-02T07:54:47;22.30;99.90
21834;DHT22;11079;51.092;3.458;2023-07-02T07:57:13;22.10;99.90
21834;DHT22;11079;51.092;3.458;2023-07-02T07:59:39;22.00;99.90
21834;DHT22;11079;51.092;3.458;2023-07-02T08:02:06;22.10;99.90
21834;DHT22;11079;51.092;3.458;2023-07-02T08:04:32;22.30;99.90
21834;DHT22;11079;51.092;3.458;2023-07-02T08:06:57;22.50;99.90
21834;DHT22;11079;51.092;3.458;2023-07-02T08:09:24;22.50;99.90
21834;DHT22;11079;51.092;3.458;2023-07-02T08:11:50;22.60;99.90
21834;DHT22;11079;51.092;3.458;2023-07-02T08:14:22;23.10;99.90
21834;DHT22;11079;51.092;3.458;2023-07-02T08:16:51;22.60;99.90
21834;DHT22;11079;51.092;3.458;2023-07-02T08:19:17;22.20;99.90
21834;DHT22;11079;51.092;3.458;2023-07-02T08:21:42;21.90;99.90
21834;DHT22;11079;51.092;3.458;2023-07-02T08:24:08;22.00;99.90
21834;DHT22;11079;51.092;3.458;2023-07-02T08:26:34;22.30;99.90
21834;DHT22;11079;51.092;3.458;2023-07-02T08:28:59;23.20;99.90
21834;DHT22;11079;51.092;3.458;2023-07-02T08:31:25;24.50;99.90
21834;DHT22;11079;51.092;3.458;2023-07-02T08:33:51;25.00;99.90
21834;DHT22;11079;51.092;3.458;2023-07-02T08:36:16;25.20;99.90
21834;DHT22;11079;51.092;3.458;2023-07-02T08:38:43;25.30;99.90
21834;DHT22;11079;51.092;3.458;2023-07-02T08:41:09;25.70;99.90
21834;DHT22;11079;51.092;3.458;2023-07-02T08:43:36;25.60;99.90
21834;DHT22;11079;51.092;3.458;2023-07-02T08:46:03;24.90;99.90
21834;DHT22;11079;51.092;3.458;2023-07-02T08:52:16;25.00;99.90
21834;DHT22;11079;51.092;3.458;2023-07-02T08:54:43;24.80;99.90
21834;DHT22;11079;51.092;3.458;2023-07-02T08:57:11;25.10;99.90
21834;DHT22;11079;51.092;3.458;2023-07-02T08:59:37;25.00;99.90
21834;DHT22;11079;51.092;3.458;2023-07-02T09:02:05;25.50;99.90
21834;DHT22;11079;51.092;3.458;2023-07-02T09:04:35;26.20;99.90
21834;DHT22;11079;51.092;3.458;2023-07-02T09:07:08;26.70;99.90
21834;DHT22;11079;51.092;3.458;2023-07-02T09:09:48;26.60;99.90
21834;DHT22;11079;51.092;3.458;2023-07-02T09:12:33;27.70;99.90
21834;DHT22;11079;51.092;3.458;2023-07-02T09:15:08;28.20;99.60
21834;DHT22;11079;51.092;3.458;2023-07-02T09:17:53;28.80;98.20
21834;DHT22;11079;51.092;3.458;2023-07-02T09:20:18;29.90;94.50
21834;DHT22;11079;51.092;3.458;2023-07-02T09:23:01;29.30;91.50
21834;DHT22;11079;51.092;3.458;2023-07-02T09:25:37;28.50;94.50
21834;DHT22;11079;51.092;3.458;2023-07-02T09:28:16;27.70;94.40
21834;DHT22;11079;51.092;3.458;2023-07-02T09:31:02;27.40;95.80
21834;DHT22;11079;51.092;3.458;2023-07-02T09:33:28;26.80;95.20
21834;DHT22;11079;51.092;3.458;2023-07-02T09:35:55;26.30;97.30
21834;DHT22;11079;51.092;3.458;2023-07-02T09:38:23;25.80;98.20
21834;DHT22;11079;51.092;3.458;2023-07-02T09:41:01;26.20;99.90
21834;DHT22;11079;51.092;3.458;2023-07-02T09:43:27;28.40;96.30
21834;DHT22;11079;51.092;3.458;2023-07-02T09:45:55;29.60;93.30
21834;DHT22;11079;51.092;3.458;2023-07-02T09:48:24;29.50;91.10
21834;DHT22;11079;51.092;3.458;2023-07-02T09:50:54;29.50;90.50
21834;DHT22;11079;51.092;3.458;2023-07-02T09:53:20;28.80;90.70
21834;DHT22;11079;51.092;3.458;2023-07-02T09:55:55;28.50;90.20
21834;DHT22;11079;51.092;3.458;2023-07-02T09:58:21;27.70;91.70
21834;DHT22;11079;51.092;3.458;2023-07-02T10:00:47;28.10;94.20
21834;DHT22;11079;51.092;3.458;2023-07-02T10:03:14;28.30;90.40
21834;DHT22;11079;51.092;3.458;2023-07-02T10:05:40;28.90;90.20
21834;DHT22;11079;51.092;3.458;2023-07-02T10:08:16;27.80;88.70
21834;DHT22;11079;51.092;3.458;2023-07-02T10:10:48;26.70;90.70
21834;DHT22;11079;51.092;3.458;2023-07-02T10:13:33;25.50;91.90
21834;DHT22;11079;51.092;3.458;2023-07-02T10:16:07;24.80;95.70
21834;DHT22;11079;51.092;3.458;2023-07-02T10:18:36;24.70;96.60
21834;DHT22;11079;51.092;3.458;2023-07-02T10:21:22;26.90;95.70
21834;DHT22;11079;51.092;3.458;2023-07-02T10:23:48;28.10;92.90
21834;DHT22;11079;51.092;3.458;2023-07-02T10:26:21;27.90;90.70
21834;DHT22;11079;51.092;3.458;2023-07-02T10:28:57;28.20;91.30
21834;DHT22;11079;51.092;3.458;2023-07-02T10:31:25;28.30;92.60
21834;DHT22;11079;51.092;3.458;2023-07-02T10:33:54;28.10;91.70
21834;DHT22;11079;51.092;3.458;2023-07-02T10:36:39;27.10;91.20
21834;DHT22;11079;51.092;3.458;2023-07-02T10:39:14;26.40;91.30
21834;DHT22;11079;51.092;3.458;2023-07-02T10:41:44;25.30;93.80
21834;DHT22;11079;51.092;3.458;2023-07-02T10:44:15;25.30;96.30
21834;DHT22;11079;51.092;3.458;2023-07-02T10:46:48;27.60;92.60
21834;DHT22;11079;51.092;3.458;2023-07-02T10:49:17;27.90;91.20
21834;DHT22;11079;51.092;3.458;2023-07-02T10:51:43;27.90;91.00
21834;DHT22;11079;51.092;3.458;2023-07-02T10:54:09;26.40;91.10
21834;DHT22;11079;51.092;3.458;2023-07-02T10:56:35;26.10;91.70
21834;DHT22;11079;51.092;3.458;2023-07-02T10:59:01;26.20;92.70
21834;DHT22;11079;51.092;3.458;2023-07-02T11:01:28;27.00;91.80
21834;DHT22;11079;51.092;3.458;2023-07-02T11:04:02;28.20;91.20
21834;DHT22;11079;51.092;3.458;2023-07-02T11:06:31;29.00;88.20
21834;DHT22;11079;51.092;3.458;2023-07-02T11:08:58;27.90;87.20
21834;DHT22;11079;51.092;3.458;2023-07-02T11:11:24;26.50;90.60
21834;DHT22;11079;51.092;3.458;2023-07-02T11:13:51;26.90;92.20
21834;DHT22;11079;51.092;3.458;2023-07-02T11:16:25;27.00;92.10
21834;DHT22;11079;51.092;3.458;2023-07-02T11:19:06;28.00;92.10
21834;DHT22;11079;51.092;3.458;2023-07-02T11:21:33;29.60;91.60
21834;DHT22;11079;51.092;3.458;2023-07-02T11:24:07;29.10;87.20
21834;DHT22;11079;51.092;3.458;2023-07-02T11:26:39;27.70;91.20
21834;DHT22;11079;51.092;3.458;2023-07-02T11:29:12;28.30;91.20
21834;DHT22;11079;51.092;3.458;2023-07-02T11:31:37;29.10;85.60
21834;DHT22;11079;51.092;3.458;2023-07-02T11:34:22;31.10;81.80
21834;DHT22;11079;51.092;3.458;2023-07-02T11:36:48;31.30;76.90
21834;DHT22;11079;51.092;3.458;2023-07-02T11:39:15;31.10;74.50
21834;DHT22;11079;51.092;3.458;2023-07-02T11:41:47;29.60;77.60
21834;DHT22;11079;51.092;3.458;2023-07-02T11:44:13;27.90;83.80
21834;DHT22;11079;51.092;3.458;2023-07-02T11:46:40;26.90;84.90
21834;DHT22;11079;51.092;3.458;2023-07-02T11:49:05;26.30;88.40
21834;DHT22;11079;51.092;3.458;2023-07-02T11:51:35;27.40;88.50
21834;DHT22;11079;51.092;3.458;2023-07-02T11:54:00;29.10;84.30
21834;DHT22;11079;51.092;3.458;2023-07-02T11:56:26;30.10;81.70
21834;DHT22;11079;51.092;3.458;2023-07-02T11:58:52;30.60;76.80
21834;DHT22;11079;51.092;3.458;2023-07-02T12:01:19;30.30;78.00
21834;DHT22;11079;51.092;3.458;2023-07-02T12:03:47;30.00;77.10
21834;DHT22;11079;51.092;3.458;2023-07-02T12:06:13;29.60;82.40
21834;DHT22;11079;51.092;3.458;2023-07-02T12:08:40;30.60;80.20
21834;DHT22;11079;51.092;3.458;2023-07-02T12:11:06;31.50;77.00
21834;DHT22;11079;51.092;3.458;2023-07-02T12:13:32;31.30;78.00
21834;DHT22;11079;51.092;3.458;2023-07-02T12:15:57;30.60;78.70
21834;DHT22;11079;51.092;3.458;2023-07-02T12:18:23;30.40;78.30
21834;DHT22;11079;51.092;3.458;2023-07-02T12:20:48;31.30;77.40
21834;DHT22;11079;51.092;3.458;2023-07-02T12:23:14;32.60;72.70
21834;DHT22;11079;51.092;3.458;2023-07-02T12:25:40;31.40;75.30
21834;DHT22;11079;51.092;3.458;2023-07-02T12:28:07;31.90;76.90
21834;DHT22;11079;51.092;3.458;2023-07-02T12:30:35;31.70;77.10
21834;DHT22;11079;51.092;3.458;2023-07-02T12:33:00;33.70;71.20
21834;DHT22;11079;51.092;3.458;2023-07-02T12:35:26;34.10;68.50
21834;DHT22;11079;51.092;3.458;2023-07-02T12:37:52;32.70;71.20
21834;DHT22;11079;51.092;3.458;2023-07-02T12:40:19;31.60;70.80
21834;DHT22;11079;51.092;3.458;2023-07-02T12:42:49;30.20;75.40
21834;DHT22;11079;51.092;3.458;2023-07-02T12:45:15;29.90;77.10
21834;DHT22;11079;51.092;3.458;2023-07-02T12:47:41;31.10;77.30
21834;DHT22;11079;51.092;3.458;2023-07-02T12:50:09;31.50;76.60
21834;DHT22;11079;51.092;3.458;2023-07-02T12:52:35;32.30;73.90
21834;DHT22;11079;51.092;3.458;2023-07-02T12:55:01;31.90;71.10
21834;DHT22;11079;51.092;3.458;2023-07-02T12:57:27;29.70;73.40
21834;DHT22;11079;51.092;3.458;2023-07-02T13:00:06;29.10;76.40
21834;DHT22;11079;51.092;3.458;2023-07-02T13:02:37;30.00;75.30
21834;DHT22;11079;51.092;3.458;2023-07-02T13:05:04;30.70;73.50
21834;DHT22;11079;51.092;3.458;2023-07-02T13:07:30;30.80;70.80
21834;DHT22;11079;51.092;3.458;2023-07-02T13:10:02;29.50;73.50
21834;DHT22;11079;51.092;3.458;2023-07-02T13:12:27;28.60;76.70
21834;DHT22;11079;51.092;3.458;2023-07-02T13:14:53;27.40;79.20
21834;DHT22;11079;51.092;3.458;2023-07-02T13:17:19;26.80;80.50
21834;DHT22;11079;51.092;3.458;2023-07-02T13:19:50;26.80;81.00
21834;DHT22;11079;51.092;3.458;2023-07-02T13:22:17;28.00;79.50
21834;DHT22;11079;51.092;3.458;2023-07-02T13:24:43;29.20;76.00
21834;DHT22;11079;51.092;3.458;2023-07-02T13:27:13;28.70;75.60
21834;DHT22;11079;51.092;3.458;2023-07-02T13:29:40;28.20;77.10
21834;DHT22;11079;51.092;3.458;2023-07-02T13:32:08;27.60;78.60
21834;DHT22;11079;51.092;3.458;2023-07-02T13:34:33;28.50;80.60
21834;DHT22;11079;51.092;3.458;2023-07-02T13:36:59;29.60;77.50
21834;DHT22;11079;51.092;3.458;2023-07-02T13:39:28;30.20;72.10
21834;DHT22;11079;51.092;3.458;2023-07-02T13:41:54;31.10;71.80
21834;DHT22;11079;51.092;3.458;2023-07-02T13:44:19;31.10;68.10
21834;DHT22;11079;51.092;3.458;2023-07-02T13:46:47;30.00;70.20
21834;DHT22;11079;51.092;3.458;2023-07-02T13:49:14;28.80;72.20
21834;DHT22;11079;51.092;3.458;2023-07-02T13:51:39;27.60;75.60
21834;DHT22;11079;51.092;3.458;2023-07-02T13:54:05;27.10;76.60
21834;DHT22;11079;51.092;3.458;2023-07-02T13:56:31;26.80;80.80
21834;DHT22;11079;51.092;3.458;2023-07-02T13:59:01;26.90;78.40
21834;DHT22;11079;51.092;3.458;2023-07-02T14:01:27;26.40;78.80
21834;DHT22;11079;51.092;3.458;2023-07-02T14:03:53;26.00;82.10
21834;DHT22;11079;51.092;3.458;2023-07-02T14:06:22;25.40;83.90
21834;DHT22;11079;51.092;3.458;2023-07-02T14:08:48;25.30;84.70
21834;DHT22;11079;51.092;3.458;2023-07-02T14:11:14;25.70;86.20
21834;DHT22;11079;51.092;3.458;2023-07-02T14:13:40;25.80;83.10
21834;DHT22;11079;51.092;3.458;2023-07-02T14:16:05;25.70;83.10
21834;DHT22;11079;51.092;3.458;2023-07-02T14:18:31;25.50;85.70
21834;DHT22;11079;51.092;3.458;2023-07-02T14:20:57;25.80;88.50
21834;DHT22;11079;51.092;3.458;2023-07-02T14:23:22;26.20;83.60
21834;DHT22;11079;51.092;3.458;2023-07-02T14:25:49;25.90;83.90
21834;DHT22;11079;51.092;3.458;2023-07-02T14:28:15;25.80;89.30
21834;DHT22;11079;51.092;3.458;2023-07-02T14:30:40;25.70;83.70
21834;DHT22;11079;51.092;3.458;2023-07-02T14:33:08;25.40;86.90
21834;DHT22;11079;51.092;3.458;2023-07-02T14:35:36;25.30;85.40
21834;DHT22;11079;51.092;3.458;2023-07-02T14:38:05;25.30;84.40
21834;DHT22;11079;51.092;3.458;2023-07-02T14:40:32;25.60;88.50
21834;DHT22;11079;51.092;3.458;2023-07-02T14:42:58;25.50;87.00
21834;DHT22;11079;51.092;3.458;2023-07-02T14:45:25;25.20;86.50
21834;DHT22;11079;51.092;3.458;2023-07-02T14:47:50;24.70;87.50
21834;DHT22;11079;51.092;3.458;2023-07-02T14:50:16;24.50;87.90
21834;DHT22;11079;51.092;3.458;2023-07-02T14:52:42;24.40;90.20
21834;DHT22;11079;51.092;3.458;2023-07-02T14:55:07;24.40;89.20
21834;DHT22;11079;51.092;3.458;2023-07-02T14:57:33;24.70;89.60
21834;DHT22;11079;51.092;3.458;2023-07-02T14:59:59;24.60;89.40
21834;DHT22;11079;51.092;3.458;2023-07-02T15:02:25;24.60;90.70
21834;DHT22;11079;51.092;3.458;2023-07-02T15:04:52;24.60;90.90
21834;DHT22;11079;51.092;3.458;2023-07-02T15:07:25;24.60;90.50
21834;DHT22;11079;51.092;3.458;2023-07-02T15:09:57;24.30;91.90
21834;DHT22;11079;51.092;3.458;2023-07-02T15:12:23;24.00;91.40
21834;DHT22;11079;51.092;3.458;2023-07-02T15:14:49;24.10;91.50
21834;DHT22;11079;51.092;3.458;2023-07-02T15:17:16;24.30;91.80
21834;DHT22;11079;51.092;3.458;2023-07-02T15:19:41;24.20;90.40
21834;DHT22;11079;51.092;3.458;2023-07-02T15:22:07;24.10;90.30
21834;DHT22;11079;51.092;3.458;2023-07-02T15:24:34;24.00;91.50
21834;DHT22;11079;51.092;3.458;2023-07-02T15:27:04;23.90;91.80
21834;DHT22;11079;51.092;3.458;2023-07-02T15:29:32;23.70;91.80
21834;DHT22;11079;51.092;3.458;2023-07-02T15:31:57;23.60;92.30
21834;DHT22;11079;51.092;3.458;2023-07-02T15:34:23;23.50;92.70
21834;DHT22;11079;51.092;3.458;2023-07-02T15:36:49;23.70;92.60
21834;DHT22;11079;51.092;3.458;2023-07-02T15:39:15;23.70;92.10